createdAt,value
2023-12-11T00:01:13.045Z,1.20
2023-12-11T00:03:41.558Z,1.42
2023-12-11T00:06:10.212Z,1.42
2023-12-11T00:08:39.688Z,1.13
2023-12-11T00:11:10.148Z,1.02
2023-12-11T00:13:38.236Z,1.00
2023-12-11T00:16:06.985Z,1.10
2023-12-11T00:18:35.175Z,1.20
2023-12-11T00:21:03.231Z,1.10
2023-12-11T00:23:31.288Z,1.17
2023-12-11T00:26:00.707Z,1.20
2023-12-11T00:28:28.758Z,1.20
2023-12-11T00:30:56.948Z,1.00
2023-12-11T00:33:25.217Z,0.90
2023-12-11T00:35:53.322Z,0.70
2023-12-11T00:38:23.589Z,0.90
2023-12-11T00:40:51.761Z,0.90
2023-12-11T00:43:21.531Z,1.10
2023-12-11T00:45:49.642Z,1.20
2023-12-11T00:48:17.700Z,0.80
2023-12-11T00:50:45.677Z,1.25
2023-12-11T00:53:13.681Z,0.95
2023-12-11T00:55:41.784Z,1.00
2023-12-11T00:58:10.315Z,0.80
2023-12-11T01:00:39.963Z,1.08
2023-12-11T01:03:07.934Z,1.20
2023-12-11T01:05:35.918Z,0.98
2023-12-11T01:08:03.980Z,0.93
2023-12-11T01:10:31.978Z,1.00
2023-12-11T01:12:59.984Z,1.10
2023-12-11T01:15:27.901Z,1.63
2023-12-11T01:17:57.610Z,1.25
2023-12-11T01:20:28.083Z,1.20
2023-12-11T01:22:56.110Z,0.82
2023-12-11T01:25:24.046Z,1.08
2023-12-11T01:27:54.381Z,1.20
2023-12-11T01:30:22.345Z,1.35
2023-12-11T01:32:50.388Z,0.90
2023-12-11T01:35:19.900Z,0.98
2023-12-11T01:37:47.905Z,1.00
2023-12-11T01:40:15.996Z,0.82
2023-12-11T01:42:44.057Z,1.00
2023-12-11T01:45:12.458Z,1.20
2023-12-11T01:47:40.932Z,0.85
2023-12-11T01:50:09.740Z,1.10
2023-12-11T01:52:39.798Z,0.93
2023-12-11T01:55:10.849Z,0.88
2023-12-11T01:57:39.204Z,1.00
2023-12-11T02:00:08.600Z,0.95
2023-12-11T02:02:36.564Z,0.90
2023-12-11T02:05:04.765Z,0.85
2023-12-11T02:07:33.418Z,1.10
2023-12-11T02:10:05.654Z,1.20
2023-12-11T02:12:33.824Z,0.82
2023-12-11T02:15:01.866Z,0.80
2023-12-11T02:17:30.104Z,0.80
2023-12-11T02:20:00.705Z,0.80
2023-12-11T02:22:28.984Z,0.90
2023-12-11T02:25:01.599Z,0.90
2023-12-11T02:27:32.027Z,1.17
2023-12-11T02:30:00.170Z,1.20
2023-12-11T02:32:28.254Z,1.10
2023-12-11T02:34:58.437Z,1.20
2023-12-11T02:37:26.370Z,1.00
2023-12-11T02:39:54.417Z,0.90
2023-12-11T02:42:22.438Z,1.10
2023-12-11T02:44:54.113Z,0.90
2023-12-11T02:47:22.087Z,1.00
2023-12-11T02:49:52.531Z,1.05
2023-12-11T02:52:20.614Z,0.85
2023-12-11T02:54:48.633Z,0.90
2023-12-11T02:57:18.046Z,1.00
2023-12-11T02:59:46.026Z,0.73
2023-12-11T03:02:17.449Z,0.88
2023-12-11T03:04:45.446Z,0.82
2023-12-11T03:07:15.329Z,0.90
2023-12-11T03:09:43.396Z,1.08
2023-12-11T03:12:11.390Z,1.27
2023-12-11T03:14:39.384Z,0.93
2023-12-11T03:17:07.324Z,0.98
2023-12-11T03:19:36.919Z,0.85
2023-12-11T03:22:05.030Z,0.90
2023-12-11T03:24:35.198Z,0.63
2023-12-11T03:27:06.005Z,0.57
2023-12-11T03:29:33.979Z,0.52
2023-12-11T03:32:02.016Z,0.70
2023-12-11T03:34:30.331Z,0.60
2023-12-11T03:36:59.791Z,0.80
2023-12-11T03:39:27.793Z,0.70
2023-12-11T03:41:57.217Z,0.73
2023-12-11T03:44:25.320Z,0.82
2023-12-11T03:46:53.326Z,1.02
2023-12-11T03:49:23.733Z,0.75
2023-12-11T03:51:51.835Z,0.57
2023-12-11T03:54:21.380Z,0.65
2023-12-11T03:56:49.399Z,0.70
2023-12-11T03:59:17.471Z,0.70
2023-12-11T04:01:46.351Z,0.80
2023-12-11T04:04:14.637Z,0.80
2023-12-11T04:06:42.721Z,0.82
2023-12-11T04:09:10.903Z,0.70
2023-12-11T04:11:40.306Z,0.73
2023-12-11T04:14:08.293Z,0.90
2023-12-11T04:16:36.285Z,0.75
2023-12-11T04:19:04.376Z,0.82
2023-12-11T04:21:32.475Z,1.30
2023-12-11T04:24:00.561Z,1.42
2023-12-11T04:26:28.538Z,1.27
2023-12-11T04:28:57.921Z,1.10
2023-12-11T04:31:25.925Z,1.40
2023-12-11T04:33:54.209Z,1.50
2023-12-11T04:36:22.823Z,0.80
2023-12-11T04:38:50.769Z,1.08
2023-12-11T04:41:18.827Z,1.00
2023-12-11T04:43:49.120Z,1.02
2023-12-11T04:46:21.769Z,1.17
2023-12-11T04:48:51.893Z,1.10
2023-12-11T04:51:22.484Z,1.00
2023-12-11T04:53:50.622Z,0.90
2023-12-11T04:56:18.748Z,1.17
2023-12-11T04:58:46.774Z,0.90
2023-12-11T05:01:14.894Z,1.00
2023-12-11T05:03:45.492Z,0.98
2023-12-11T05:06:13.537Z,0.90
2023-12-11T05:08:41.594Z,1.00
2023-12-11T05:11:09.646Z,1.20
2023-12-11T05:13:37.638Z,1.30
2023-12-11T05:16:06.377Z,1.00
2023-12-11T05:18:38.327Z,1.13
2023-12-11T05:21:11.988Z,1.15
2023-12-11T05:23:40.033Z,1.10
2023-12-11T05:26:08.042Z,1.30
2023-12-11T05:28:36.006Z,0.98
2023-12-11T05:31:04.103Z,1.05
2023-12-11T05:33:32.243Z,1.45
2023-12-11T05:36:00.286Z,1.30
2023-12-11T05:38:31.934Z,1.10
2023-12-11T05:40:59.932Z,1.10
2023-12-11T05:43:28.063Z,1.35
2023-12-11T05:45:56.074Z,1.23
2023-12-11T05:48:24.138Z,1.40
2023-12-11T05:50:52.136Z,1.15
2023-12-11T05:53:20.140Z,1.20
2023-12-11T05:55:49.713Z,1.20
2023-12-11T05:58:17.802Z,1.25
2023-12-11T06:00:46.260Z,1.33
2023-12-11T06:03:14.575Z,1.63
2023-12-11T06:05:42.743Z,1.27
2023-12-11T06:08:10.836Z,1.50
2023-12-11T06:10:38.866Z,1.20
2023-12-11T06:13:08.433Z,1.30
2023-12-11T06:15:36.538Z,1.30
2023-12-11T06:18:09.273Z,1.10
2023-12-11T06:20:37.382Z,1.50
2023-12-11T06:23:05.448Z,1.40
2023-12-11T06:25:33.628Z,1.30
2023-12-11T06:28:02.257Z,1.45
2023-12-11T06:30:32.210Z,1.42
2023-12-11T06:33:00.386Z,1.25
2023-12-11T06:35:28.515Z,1.30
2023-12-11T06:37:56.641Z,1.48
2023-12-11T06:40:24.750Z,1.30
2023-12-11T06:42:52.817Z,1.60
2023-12-11T06:45:20.841Z,1.50
2023-12-11T06:47:50.242Z,1.60
2023-12-11T06:50:21.030Z,1.70
2023-12-11T06:52:49.113Z,1.63
2023-12-11T06:55:19.204Z,1.85
2023-12-11T06:57:49.952Z,1.50
2023-12-11T07:00:19.044Z,1.60
2023-12-11T07:02:47.163Z,1.92
2023-12-11T07:05:16.933Z,1.60
2023-12-11T07:07:45.041Z,1.90
2023-12-11T07:10:13.064Z,2.10
2023-12-11T07:12:44.085Z,1.70
2023-12-11T07:15:12.351Z,1.80
2023-12-11T07:17:41.031Z,1.90
2023-12-11T07:20:11.435Z,1.80
2023-12-11T07:22:40.996Z,1.90
2023-12-11T07:25:15.234Z,1.92
2023-12-11T07:27:43.961Z,1.70
2023-12-11T07:30:15.659Z,2.10
2023-12-11T07:32:43.894Z,2.45
2023-12-11T07:35:14.721Z,1.90
2023-12-11T07:37:46.421Z,2.60
2023-12-11T07:40:15.241Z,2.53
2023-12-11T07:42:43.223Z,2.30
2023-12-11T07:45:13.510Z,2.20
2023-12-11T07:47:44.587Z,2.60
2023-12-11T07:50:12.896Z,2.80
2023-12-11T07:52:42.270Z,2.92
2023-12-11T07:55:11.907Z,2.65
2023-12-11T07:57:41.109Z,1.73
2023-12-11T08:00:10.232Z,1.90
2023-12-11T08:02:39.402Z,1.60
2023-12-11T08:05:07.523Z,1.40
2023-12-11T08:07:35.842Z,1.42
2023-12-11T08:10:04.121Z,1.40
2023-12-11T08:12:34.354Z,1.48
2023-12-11T08:15:05.226Z,1.33
2023-12-11T08:17:33.906Z,1.40
2023-12-11T08:20:02.380Z,1.40
2023-12-11T08:22:30.578Z,1.02
2023-12-11T08:24:58.667Z,1.23
2023-12-11T08:27:29.192Z,1.20
2023-12-11T08:29:58.984Z,1.60
2023-12-11T08:32:27.083Z,1.98
2023-12-11T08:34:55.202Z,1.40
2023-12-11T08:37:23.360Z,1.15
2023-12-11T08:39:51.472Z,1.50
2023-12-11T08:42:19.551Z,1.20
2023-12-11T08:44:47.581Z,1.33
2023-12-11T08:47:16.955Z,1.33
2023-12-11T08:49:45.081Z,1.42
2023-12-11T08:52:13.189Z,1.70
2023-12-11T08:54:41.203Z,1.58
2023-12-11T08:57:09.741Z,1.58
2023-12-11T08:59:38.986Z,1.33
2023-12-11T09:02:07.419Z,1.70
2023-12-11T09:04:38.983Z,1.40
2023-12-11T09:07:08.745Z,1.42
2023-12-11T09:09:36.759Z,1.20
2023-12-11T09:12:06.073Z,1.50
2023-12-11T09:14:35.655Z,1.40
2023-12-11T09:17:03.780Z,1.23
2023-12-11T09:19:40.516Z,1.10
2023-12-11T09:22:20.428Z,1.30
2023-12-11T09:24:48.604Z,1.60
2023-12-11T09:27:19.104Z,1.42
2023-12-11T09:29:49.702Z,1.52
2023-12-11T09:32:18.555Z,1.40
2023-12-11T09:34:47.558Z,1.40
2023-12-11T09:37:17.122Z,1.60
2023-12-11T09:39:47.017Z,1.27
2023-12-11T09:42:16.781Z,1.35
2023-12-11T09:44:47.768Z,1.60
2023-12-11T09:47:18.883Z,1.60
2023-12-11T09:49:49.296Z,1.38
2023-12-11T09:52:20.415Z,1.73
2023-12-11T09:54:50.019Z,1.50
2023-12-11T09:57:18.696Z,1.30
2023-12-11T09:59:50.917Z,1.40
2023-12-11T10:02:19.798Z,1.80
2023-12-11T10:05:08.846Z,1.83
2023-12-11T10:07:38.101Z,1.80
2023-12-11T10:10:24.346Z,1.77
2023-12-11T10:12:52.426Z,1.45
2023-12-11T10:15:25.503Z,1.92
2023-12-11T10:18:07.349Z,1.70
2023-12-11T10:20:36.933Z,1.67
2023-12-11T10:23:16.671Z,1.70
2023-12-11T10:25:48.082Z,1.55
2023-12-11T10:28:19.840Z,1.83
2023-12-11T10:30:53.203Z,1.83
2023-12-11T10:33:22.235Z,1.35
2023-12-11T10:35:50.885Z,1.40
2023-12-11T10:38:23.287Z,1.60
2023-12-11T10:40:53.244Z,1.48
2023-12-11T10:43:21.554Z,1.40
2023-12-11T10:45:52.910Z,1.88
2023-12-11T10:48:22.472Z,1.73
2023-12-11T10:50:51.419Z,1.77
2023-12-11T10:53:20.225Z,1.38
2023-12-11T10:55:50.608Z,1.63
2023-12-11T10:58:20.679Z,1.42
2023-12-11T11:00:49.348Z,1.55
2023-12-11T11:03:19.232Z,2.33
2023-12-11T11:05:48.752Z,2.05
2023-12-11T11:08:28.303Z,1.90
2023-12-11T11:11:03.925Z,1.83
2023-12-11T11:13:40.120Z,2.53
2023-12-11T11:16:08.359Z,1.63
2023-12-11T11:19:07.133Z,1.92
2023-12-11T11:21:35.419Z,1.90
2023-12-11T11:24:03.802Z,1.83
2023-12-11T11:26:33.752Z,2.92
2023-12-11T11:29:06.914Z,1.92
2023-12-11T11:31:52.512Z,1.95
2023-12-11T11:34:45.945Z,1.70
2023-12-11T11:37:18.419Z,2.05
2023-12-11T11:39:59.918Z,1.70
2023-12-11T11:42:29.503Z,1.85
2023-12-11T11:45:00.111Z,1.98
2023-12-11T11:47:32.513Z,2.47
2023-12-11T11:50:06.728Z,2.00
2023-12-11T11:52:37.081Z,2.30
2023-12-11T11:55:12.913Z,2.28
2023-12-11T11:57:42.154Z,2.50
2023-12-11T12:00:12.742Z,2.00
2023-12-11T12:02:41.039Z,2.88
2023-12-11T12:05:11.570Z,2.03
2023-12-11T12:07:41.601Z,2.30
2023-12-11T12:10:14.290Z,2.95
2023-12-11T12:12:42.749Z,2.20
2023-12-11T12:15:12.756Z,2.20
2023-12-11T12:17:41.381Z,2.63
2023-12-11T12:20:14.265Z,2.10
2023-12-11T12:22:57.060Z,2.47
2023-12-11T12:25:25.334Z,2.17
2023-12-11T12:27:55.024Z,2.35
2023-12-11T12:30:24.658Z,2.40
2023-12-11T12:32:53.803Z,2.15
2023-12-11T12:35:22.918Z,2.15
2023-12-11T12:37:51.917Z,2.28
2023-12-11T12:40:20.703Z,2.83
2023-12-11T12:42:49.128Z,2.13
2023-12-11T12:45:35.930Z,2.28
2023-12-11T12:48:05.993Z,2.88
2023-12-11T12:50:34.733Z,2.33
2023-12-11T12:53:07.493Z,2.30
2023-12-11T12:55:36.535Z,2.53
2023-12-11T12:58:05.346Z,2.08
2023-12-11T13:00:36.478Z,2.30
2023-12-11T13:03:08.942Z,2.50
2023-12-11T13:05:44.368Z,2.92
2023-12-11T13:08:12.425Z,2.58
2023-12-11T13:10:40.405Z,1.90
2023-12-11T13:13:12.952Z,2.28
2023-12-11T13:15:43.631Z,2.33
2023-12-11T13:18:16.429Z,3.20
2023-12-11T13:20:44.932Z,2.58
2023-12-11T13:23:13.051Z,2.70
2023-12-11T13:25:40.908Z,2.42
2023-12-11T13:28:08.888Z,2.42
2023-12-11T13:30:37.493Z,1.75
2023-12-11T13:33:07.092Z,2.60
2023-12-11T13:35:35.160Z,2.13
2023-12-11T13:38:03.384Z,2.28
2023-12-11T13:40:31.396Z,2.08
2023-12-11T13:42:59.388Z,2.08
2023-12-11T13:45:29.864Z,2.08
2023-12-11T13:47:58.152Z,2.22
2023-12-11T13:50:28.450Z,2.45
2023-12-11T13:52:56.902Z,2.70
2023-12-11T13:55:25.348Z,2.05
2023-12-11T13:57:53.865Z,2.55
2023-12-11T14:00:21.886Z,2.60
2023-12-11T14:03:00.873Z,2.22
2023-12-11T14:05:34.836Z,2.70
2023-12-11T14:08:04.276Z,2.47
2023-12-11T14:10:36.064Z,2.75
2023-12-11T14:13:04.697Z,3.03
2023-12-11T14:15:33.654Z,2.55
2023-12-11T14:18:01.649Z,2.60
2023-12-11T14:20:31.081Z,2.10
2023-12-11T14:23:03.389Z,2.47
2023-12-11T14:25:31.714Z,2.95
2023-12-11T14:28:05.073Z,2.90
2023-12-11T14:33:05.593Z,2.60
2023-12-11T14:35:33.981Z,2.53
2023-12-11T14:38:05.793Z,2.80
2023-12-11T14:40:34.820Z,3.08
2023-12-11T14:43:06.057Z,3.42
2023-12-11T14:48:09.893Z,3.00
2023-12-11T14:50:37.923Z,3.13
2023-12-11T14:53:08.093Z,2.75
2023-12-11T14:55:43.647Z,3.53
2023-12-11T14:58:12.263Z,2.70
2023-12-11T15:00:40.268Z,3.20
2023-12-11T15:03:08.198Z,3.42
2023-12-11T15:05:36.369Z,3.38
2023-12-11T15:08:04.378Z,3.13
2023-12-11T15:10:37.467Z,3.10
2023-12-11T15:13:07.907Z,3.22
2023-12-11T15:15:36.663Z,3.22
2023-12-11T15:18:07.923Z,3.20
2023-12-11T15:20:40.073Z,2.92
2023-12-11T15:23:10.706Z,2.40
2023-12-11T15:25:41.377Z,2.90
2023-12-11T15:28:09.337Z,2.88
2023-12-11T15:34:23.829Z,2.70
2023-12-11T15:36:52.340Z,3.33
2023-12-11T15:39:23.636Z,3.85
2023-12-11T15:41:54.095Z,2.20
2023-12-11T15:44:22.453Z,3.80
2023-12-11T15:46:50.722Z,2.80
2023-12-11T15:49:19.415Z,3.47
2023-12-11T15:51:53.263Z,2.42
2023-12-11T15:54:21.420Z,3.67
2023-12-11T15:56:49.481Z,3.60
2023-12-11T15:59:18.732Z,3.58
2023-12-11T16:01:46.759Z,2.45
2023-12-11T16:04:14.756Z,3.60
2023-12-11T16:06:42.705Z,3.35
2023-12-11T16:09:19.075Z,3.80
2023-12-11T16:11:47.683Z,3.55
2023-12-11T16:14:19.280Z,3.70
2023-12-11T16:16:47.607Z,3.00
2023-12-11T16:19:16.859Z,3.63
2023-12-11T16:21:45.578Z,3.13
2023-12-11T16:24:14.358Z,3.05
2023-12-11T16:26:45.432Z,3.33
2023-12-11T16:29:13.462Z,3.42
2023-12-11T16:31:45.119Z,3.10
2023-12-11T16:34:13.314Z,3.65
2023-12-11T16:36:41.867Z,3.72
2023-12-11T16:39:09.873Z,3.50
2023-12-11T16:41:37.789Z,4.32
2023-12-11T16:44:06.356Z,3.13
2023-12-11T16:46:34.716Z,2.38
2023-12-11T16:49:04.801Z,2.67
2023-12-11T16:51:33.059Z,3.35
2023-12-11T16:54:01.097Z,3.72
2023-12-11T16:56:29.271Z,3.13
2023-12-11T16:58:57.222Z,2.90
2023-12-11T17:01:25.374Z,3.95
2023-12-11T17:03:53.679Z,3.38
2023-12-11T17:06:24.006Z,3.05
2023-12-11T17:08:52.165Z,3.15
2023-12-11T17:11:20.350Z,3.00
2023-12-11T17:13:49.327Z,3.72
2023-12-11T17:16:18.947Z,2.92
2023-12-11T17:18:47.080Z,3.63
2023-12-11T17:21:22.427Z,3.47
2023-12-11T17:23:58.866Z,3.42
2023-12-11T17:26:29.495Z,2.83
2023-12-11T17:28:59.846Z,2.95
2023-12-11T17:31:27.809Z,3.25
2023-12-11T17:33:55.900Z,3.35
2023-12-11T17:36:23.824Z,3.55
2023-12-11T17:38:51.841Z,2.20
2023-12-11T17:41:21.177Z,2.78
2023-12-11T17:43:49.318Z,2.97
2023-12-11T17:46:17.273Z,2.67
2023-12-11T17:48:45.717Z,3.33
2023-12-11T17:51:16.408Z,2.95
2023-12-11T17:53:44.895Z,3.75
2023-12-11T17:56:16.716Z,2.90
2023-12-11T17:58:46.280Z,2.92
2023-12-11T18:01:14.391Z,3.20
2023-12-11T18:03:42.385Z,2.67
2023-12-11T18:06:16.101Z,3.58
2023-12-11T18:08:44.585Z,3.60
2023-12-11T18:11:12.790Z,3.08
2023-12-11T18:13:41.179Z,3.33
2023-12-11T18:16:10.677Z,3.70
2023-12-11T18:18:39.887Z,3.40
2023-12-11T18:21:08.215Z,3.38
2023-12-11T18:23:38.550Z,3.25
2023-12-11T18:26:06.852Z,2.97
2023-12-11T18:28:34.815Z,2.95
2023-12-11T18:31:03.456Z,2.88
2023-12-11T18:33:33.046Z,3.47
2023-12-11T18:36:01.100Z,2.53
2023-12-11T18:38:29.364Z,3.55
2023-12-11T18:40:59.535Z,3.70
2023-12-11T18:43:28.200Z,3.03
2023-12-11T18:45:56.778Z,3.17
2023-12-11T18:48:26.766Z,3.55
2023-12-11T18:50:56.623Z,3.97
2023-12-11T18:53:27.497Z,3.72
2023-12-11T18:56:02.398Z,4.20
2023-12-11T18:58:31.203Z,3.65
2023-12-11T19:01:01.098Z,4.63
2023-12-11T19:03:29.263Z,3.58
2023-12-11T19:05:58.686Z,3.88
2023-12-11T19:08:27.793Z,3.78
2023-12-11T19:10:56.300Z,3.30
2023-12-11T19:13:24.515Z,3.40
2023-12-11T19:15:54.490Z,5.03
2023-12-11T19:18:26.084Z,3.53
2023-12-11T19:20:54.333Z,4.38
2023-12-11T19:23:26.150Z,2.58
2023-12-11T19:25:56.348Z,3.55
2023-12-11T19:28:24.943Z,3.70
2023-12-11T19:30:53.578Z,3.67
2023-12-11T19:33:22.072Z,3.90
2023-12-11T19:35:52.331Z,4.63
2023-12-11T19:38:20.820Z,4.10
2023-12-11T19:40:50.474Z,3.42
2023-12-11T19:43:19.160Z,3.10
2023-12-11T19:45:47.376Z,3.47
2023-12-11T19:48:17.016Z,4.65
2023-12-11T19:50:45.563Z,4.15
2023-12-11T19:53:13.744Z,3.30
2023-12-11T19:55:42.194Z,4.93
2023-12-11T19:58:12.133Z,2.80
2023-12-11T20:00:40.930Z,3.67
2023-12-11T20:03:10.602Z,3.65
2023-12-11T20:05:52.612Z,3.08
2023-12-11T20:08:21.287Z,3.67
2023-12-11T20:10:49.669Z,2.83
2023-12-11T20:13:21.098Z,2.55
2023-12-11T20:15:49.293Z,2.10
2023-12-11T20:18:18.178Z,2.63
2023-12-11T20:25:12.071Z,3.97
2023-12-11T20:27:40.082Z,3.20
2023-12-11T20:30:10.596Z,2.85
2023-12-11T20:32:38.584Z,3.22
2023-12-11T20:35:09.989Z,3.95
2023-12-11T20:37:38.984Z,2.85
2023-12-11T20:40:08.462Z,3.28
2023-12-11T20:42:42.482Z,2.92
2023-12-11T20:45:12.405Z,3.35
2023-12-11T20:47:40.489Z,3.20
2023-12-11T20:50:12.053Z,2.88
2023-12-11T20:52:41.533Z,2.17
2023-12-11T20:55:10.489Z,2.63
2023-12-11T20:57:38.528Z,2.80
2023-12-11T21:00:11.366Z,3.13
2023-12-11T21:02:42.492Z,3.00
2023-12-11T21:05:10.891Z,3.03
2023-12-11T21:07:42.370Z,3.17
2023-12-11T21:10:12.955Z,3.03
2023-12-11T21:12:40.897Z,2.97
2023-12-11T21:15:09.331Z,2.58
2023-12-11T21:17:41.528Z,2.30
2023-12-11T21:20:14.772Z,3.47
2023-12-11T21:22:42.885Z,2.42
2023-12-11T21:25:11.540Z,2.50
2023-12-11T21:27:39.762Z,1.88
2023-12-11T21:30:10.514Z,2.60
2023-12-11T21:32:40.441Z,2.92
2023-12-11T21:35:09.044Z,3.33
2023-12-11T21:37:38.628Z,2.38
2023-12-11T21:40:07.938Z,2.28
2023-12-11T21:42:38.800Z,2.25
2023-12-11T21:45:07.773Z,2.72
2023-12-11T21:47:36.122Z,2.63
2023-12-11T21:50:05.875Z,2.05
2023-12-11T21:52:33.966Z,2.00
2023-12-11T21:55:03.330Z,3.33
2023-12-11T21:57:31.514Z,2.55
2023-12-11T21:59:59.557Z,2.10
2023-12-11T22:02:27.706Z,3.83
2023-12-11T22:04:55.538Z,2.47
2023-12-11T22:07:23.535Z,3.00
2023-12-11T22:09:51.550Z,3.10
2023-12-11T22:12:21.234Z,2.60
2023-12-11T22:14:49.149Z,2.47
2023-12-11T22:17:17.085Z,2.25
2023-12-11T22:19:45.042Z,2.13
2023-12-11T22:22:13.185Z,2.47
2023-12-11T22:24:41.249Z,2.15
2023-12-11T22:27:09.184Z,2.65
2023-12-11T22:29:38.899Z,2.47
2023-12-11T22:32:07.841Z,1.90
2023-12-11T22:34:35.854Z,3.60
2023-12-11T22:37:04.015Z,2.03
2023-12-11T22:39:34.097Z,3.40
2023-12-11T22:42:02.130Z,2.55
2023-12-11T22:44:30.023Z,3.20
2023-12-11T22:47:01.753Z,2.80
2023-12-11T22:49:29.916Z,3.38
2023-12-11T22:51:57.898Z,2.42
2023-12-11T22:54:25.799Z,2.72
2023-12-11T22:56:53.723Z,2.33
2023-12-11T22:59:21.704Z,3.97
2023-12-11T23:01:50.825Z,2.50
2023-12-11T23:04:20.261Z,3.72
2023-12-11T23:06:50.763Z,3.17
2023-12-11T23:09:18.783Z,3.33
2023-12-11T23:11:46.645Z,3.50
2023-12-11T23:14:14.659Z,2.70
2023-12-11T23:16:42.560Z,3.47
2023-12-11T23:19:10.515Z,2.50
2023-12-11T23:21:39.954Z,2.58
2023-12-11T23:24:08.730Z,2.55
2023-12-11T23:26:36.631Z,3.53
2023-12-11T23:29:04.710Z,3.13
2023-12-11T23:31:32.731Z,2.72
2023-12-11T23:34:00.982Z,3.60
2023-12-11T23:36:28.946Z,3.58
2023-12-11T23:38:58.200Z,2.67
2023-12-11T23:41:26.073Z,3.92
2023-12-11T23:43:54.139Z,4.10
2023-12-11T23:46:22.133Z,3.15
2023-12-11T23:48:50.260Z,3.95
2023-12-11T23:51:18.286Z,4.20
2023-12-11T23:53:48.384Z,5.32
2023-12-11T23:56:17.666Z,4.60
2023-12-11T23:58:46.004Z,3.30
